Time;durP1;ratioP1;P1;durP2;ratioP2;P2;SDS_P1;SDS_P2;PMS_P1;PMS_P2;Temp;Humidity;BMP_temperature;BMP_pressure;BME280_temperature;BME280_humidity;BME280_pressure;Samples;Min_cycle;Max_cycle;Signal;HPM_P1;HPM_P2
2023/04/07 00:00:31;;;;;;;9.05;7.50;;;8.20;99.90;;;;;;5017590;28;20044;-87
2023/04/07 00:02:56;;;;;;;8.68;7.43;;;8.30;99.90;;;;;;5016125;28;20032;-86
2023/04/07 00:05:22;;;;;;;7.85;6.90;;;8.30;99.90;;;;;;5008665;28;20044;-86
2023/04/07 00:07:48;;;;;;;8.27;7.45;;;8.30;99.90;;;;;;5008762;28;20025;-87
2023/04/07 00:10:14;;;;;;;7.13;6.43;;;8.30;99.90;;;;;;4992727;28;20459;-87
2023/04/07 00:12:40;;;;;;;12.18;9.80;;;8.30;99.90;;;;;;4997837;28;20505;-86
2023/04/07 00:15:06;;;;;;;9.75;7.85;;;8.40;99.90;;;;;;4997532;28;20029;-86
2023/04/07 00:17:32;;;;;;;11.05;9.18;;;8.40;99.90;;;;;;5008729;28;20056;-85
2023/04/07 00:19:58;;;;;;;12.27;10.48;;;8.40;99.90;;;;;;5009285;28;20026;-86
2023/04/07 00:22:24;;;;;;;10.55;8.95;;;8.40;99.90;;;;;;5031971;28;20040;-86
2023/04/07 00:24:49;;;;;;;11.13;9.43;;;8.40;99.90;;;;;;5019942;28;20440;-86
2023/04/07 00:27:15;;;;;;;11.15;8.07;;;8.40;99.90;;;;;;5016611;28;20026;-86
2023/04/07 00:29:42;;;;;;;13.80;11.63;;;8.30;99.90;;;;;;5012843;28;20036;-86
2023/04/07 00:32:08;;;;;;;16.83;13.93;;;8.40;99.90;;;;;;4997732;28;20030;-87
2023/04/07 00:34:37;;;;;;;14.50;12.57;;;8.30;99.90;;;;;;4991138;28;20240;-86
2023/04/07 00:37:05;;;;;;;13.90;12.13;;;8.40;99.90;;;;;;5001448;28;20040;-85
2023/04/07 00:39:32;;;;;;;14.98;13.13;;;8.40;99.90;;;;;;5000386;28;20034;-87
2023/04/07 00:41:57;;;;;;;13.32;11.27;;;8.30;99.90;;;;;;4998601;28;20091;-87
2023/04/07 00:44:23;;;;;;;15.35;12.73;;;8.30;99.90;;;;;;5008320;28;20569;-87
2023/04/07 00:46:49;;;;;;;13.93;11.75;;;8.30;99.90;;;;;;4998329;28;20517;-87
2023/04/07 00:49:16;;;;;;;18.17;15.32;;;8.30;99.90;;;;;;5003242;28;20083;-87
2023/04/07 00:51:42;;;;;;;19.80;15.95;;;8.40;99.90;;;;;;4990509;28;20030;-87
2023/04/07 00:54:09;;;;;;;16.27;13.13;;;8.40;99.90;;;;;;4999807;28;20067;-86
2023/04/07 00:56:35;;;;;;;21.05;16.95;;;8.40;99.90;;;;;;5002436;28;20037;-86
2023/04/07 00:59:03;;;;;;;21.77;16.13;;;8.40;99.90;;;;;;4996389;28;20025;-88
2023/04/07 01:01:50;;;;;;;20.73;15.65;;;8.40;99.90;;;;;;4999215;28;20324;-87
2023/04/07 01:04:27;;;;;;;28.77;20.75;;;8.40;99.90;;;;;;4992138;28;20034;-85
2023/04/07 01:07:00;;;;;;;31.10;22.25;;;8.40;99.90;;;;;;5001666;28;20075;-87
2023/04/07 01:09:46;;;;;;;32.78;21.55;;;8.40;99.90;;;;;;5008296;28;20551;-86
2023/04/07 01:12:30;;;;;;;33.80;21.90;;;8.40;99.90;;;;;;5006775;28;20166;-85
2023/04/07 01:15:03;;;;;;;30.83;21.05;;;8.50;99.90;;;;;;5000596;28;20037;-86
2023/04/07 01:17:44;;;;;;;28.05;19.58;;;8.50;99.90;;;;;;5012169;28;20555;-84
2023/04/07 01:20:15;;;;;;;24.83;17.85;;;8.50;99.90;;;;;;5002696;28;20049;-87
2023/04/07 01:22:45;;;;;;;32.35;20.65;;;8.50;99.90;;;;;;4999750;28;20055;-86
2023/04/07 01:25:27;;;;;;;35.72;20.60;;;8.50;99.90;;;;;;4994996;28;20037;-86
2023/04/07 01:28:11;;;;;;;27.20;18.00;;;8.50;99.90;;;;;;5022346;28;20037;-86
2023/04/07 01:30:42;;;;;;;25.83;16.65;;;8.50;99.90;;;;;;5022160;28;20105;-88
2023/04/07 01:33:10;;;;;;;26.73;15.68;;;8.50;99.90;;;;;;5011768;28;20033;-86
2023/04/07 01:35:37;;;;;;;21.90;14.88;;;8.50;99.90;;;;;;5010197;28;20066;-88
2023/04/07 01:38:04;;;;;;;18.90;13.50;;;8.40;99.90;;;;;;5019382;28;20068;-86
2023/04/07 01:40:33;;;;;;;21.80;14.38;;;8.50;99.90;;;;;;4996424;28;20120;-87
2023/04/07 01:42:59;;;;;;;25.75;15.52;;;8.50;99.90;;;;;;5017723;28;20490;-87
2023/04/07 01:45:27;;;;;;;26.90;16.75;;;8.50;99.90;;;;;;5017776;28;20040;-85
2023/04/07 01:47:54;;;;;;;27.42;18.48;;;8.40;99.90;;;;;;5001514;28;20042;-86
2023/04/07 01:50:20;;;;;;;30.58;18.85;;;8.50;99.90;;;;;;5012281;28;20037;-86
2023/04/07 01:52:47;;;;;;;31.38;19.40;;;8.40;99.90;;;;;;5004549;28;20029;-87
2023/04/07 01:55:13;;;;;;;27.95;18.02;;;8.40;99.90;;;;;;4996252;28;20502;-87
2023/04/07 01:57:47;;;;;;;33.63;18.23;;;8.40;99.90;;;;;;5000706;28;20046;-87
2023/04/07 02:00:16;;;;;;;27.08;16.60;;;8.40;99.90;;;;;;5005770;28;20075;-86
2023/04/07 02:02:50;;;;;;;27.80;17.65;;;8.40;99.90;;;;;;5010825;28;20909;-85
2023/04/07 02:05:19;;;;;;;33.00;21.05;;;8.30;99.90;;;;;;5007000;28;20046;-85
2023/04/07 02:07:58;;;;;;;28.15;18.02;;;8.30;99.90;;;;;;5012363;28;20021;-87
2023/04/07 02:10:26;;;;;;;29.05;18.23;;;8.30;99.90;;;;;;5011334;28;20034;-86
2023/04/07 02:12:57;;;;;;;23.25;16.00;;;8.30;99.90;;;;;;5002814;28;20038;-87
2023/04/07 02:15:24;;;;;;;26.30;14.85;;;8.30;99.90;;;;;;5013852;28;20072;-85
2023/04/07 02:17:53;;;;;;;27.33;14.60;;;8.30;99.90;;;;;;4993593;28;20025;-86
2023/04/07 02:20:20;;;;;;;24.67;14.15;;;8.30;99.90;;;;;;5003458;28;20112;-87
2023/04/07 02:22:47;;;;;;;25.40;13.98;;;8.30;99.90;;;;;;4992793;28;20505;-87
2023/04/07 02:25:27;;;;;;;24.33;14.27;;;8.30;99.90;;;;;;4993552;28;20117;-86
2023/04/07 02:27:54;;;;;;;20.90;12.68;;;8.30;99.90;;;;;;5007760;28;20022;-86
2023/04/07 02:30:20;;;;;;;21.80;12.88;;;8.30;99.90;;;;;;4997421;28;20064;-86
2023/04/07 02:32:46;;;;;;;25.00;14.82;;;8.30;99.90;;;;;;5002305;28;20025;-86
2023/04/07 02:35:13;;;;;;;23.63;12.95;;;8.30;99.90;;;;;;5017653;28;20060;-87
2023/04/07 02:37:39;;;;;;;21.27;11.98;;;8.30;99.90;;;;;;5007386;28;20364;-87
2023/04/07 02:40:06;;;;;;;21.30;13.23;;;8.30;99.90;;;;;;5011119;28;20177;-87
2023/04/07 02:42:32;;;;;;;22.27;12.73;;;8.20;99.90;;;;;;5011132;28;20026;-85
2023/04/07 02:44:57;;;;;;;17.48;11.13;;;8.20;99.90;;;;;;4997366;28;20509;-85
2023/04/07 02:47:24;;;;;;;21.55;12.90;;;8.20;99.90;;;;;;4993714;28;20040;-86
2023/04/07 02:49:49;;;;;;;18.48;11.93;;;8.20;99.90;;;;;;5001784;28;20604;-85
2023/04/07 02:52:16;;;;;;;17.15;11.27;;;8.20;99.90;;;;;;5017081;28;20107;-87
2023/04/07 02:54:42;;;;;;;19.95;11.68;;;8.20;99.90;;;;;;5020067;28;20091;-85
2023/04/07 02:57:09;;;;;;;15.73;10.10;;;8.20;99.90;;;;;;4993418;28;20049;-86
2023/04/07 02:59:34;;;;;;;15.15;9.57;;;8.20;99.90;;;;;;5002903;28;20076;-85
2023/04/07 03:02:00;;;;;;;15.73;10.65;;;8.20;99.90;;;;;;5013161;28;20054;-84
2023/04/07 03:04:27;;;;;;;16.58;9.32;;;8.20;99.90;;;;;;5020041;28;20048;-86
2023/04/07 03:06:55;;;;;;;15.85;10.60;;;8.20;99.90;;;;;;5018257;28;20021;-85
2023/04/07 03:09:21;;;;;;;16.17;9.85;;;8.20;99.90;;;;;;5010572;28;20124;-85
2023/04/07 03:11:46;;;;;;;19.45;11.40;;;8.20;99.90;;;;;;4998339;28;20134;-86
2023/04/07 03:14:15;;;;;;;21.15;12.73;;;8.20;99.90;;;;;;4989722;28;20108;-86
2023/04/07 03:16:46;;;;;;;21.33;12.95;;;8.20;99.90;;;;;;5000934;28;20057;-85
2023/04/07 03:19:13;;;;;;;20.05;12.90;;;8.20;99.90;;;;;;5007246;28;20022;-86
2023/04/07 03:21:47;;;;;;;21.90;12.00;;;8.20;99.90;;;;;;5002978;28;20432;-86
2023/04/07 03:24:13;;;;;;;26.45;14.15;;;8.10;99.90;;;;;;4990347;28;20048;-86
2023/04/07 03:26:39;;;;;;;23.40;12.52;;;8.10;99.90;;;;;;5006262;28;20413;-86
2023/04/07 03:29:11;;;;;;;24.52;12.95;;;8.10;99.90;;;;;;5000342;28;20030;-86
2023/04/07 03:31:40;;;;;;;28.52;14.85;;;8.10;99.90;;;;;;5009043;28;20044;-86
2023/04/07 03:34:07;;;;;;;31.20;15.48;;;8.10;99.90;;;;;;4998327;28;20505;-86
2023/04/07 03:36:32;;;;;;;27.88;15.23;;;8.10;99.90;;;;;;5011205;28;20045;-85
2023/04/07 03:39:02;;;;;;;27.95;15.82;;;8.10;99.90;;;;;;5015498;28;20510;-86
2023/04/07 03:41:28;;;;;;;25.83;14.00;;;8.10;99.90;;;;;;5017279;28;20026;-86
2023/04/07 03:43:54;;;;;;;31.27;15.45;;;8.10;99.90;;;;;;4993595;28;20102;-85
2023/04/07 03:46:20;;;;;;;26.77;14.98;;;8.10;99.90;;;;;;5006714;28;20057;-85
2023/04/07 03:48:46;;;;;;;23.35;12.93;;;8.10;99.90;;;;;;5001520;28;20030;-86
2023/04/07 03:51:12;;;;;;;23.15;13.00;;;8.10;99.90;;;;;;5016756;28;20037;-85
2023/04/07 03:53:38;;;;;;;21.33;12.73;;;8.10;99.90;;;;;;4991664;28;20029;-85
2023/04/07 03:56:15;;;;;;;23.60;12.05;;;8.10;99.90;;;;;;5004061;28;20026;-86
2023/04/07 03:59:00;;;;;;;18.52;10.98;;;8.10;99.90;;;;;;5089035;27;1351367;-86
2023/04/07 04:01:30;;;;;;;19.70;9.98;;;8.00;99.90;;;;;;5135871;27;20473;-82
2023/04/07 04:04:02;;;;;;;18.17;10.27;;;8.00;99.90;;;;;;5118124;28;20395;-84
2023/04/07 04:06:30;;;;;;;17.67;8.55;;;8.00;99.90;;;;;;5105263;28;20549;-87
2023/04/07 04:09:07;;;;;;;12.60;6.97;;;8.00;99.90;;;;;;5087940;28;20048;-86
2023/04/07 04:11:36;;;;;;;17.20;9.35;;;8.00;99.90;;;;;;5100145;28;20533;-85
2023/04/07 04:14:03;;;;;;;11.82;7.63;;;8.00;99.90;;;;;;5096481;28;20224;-86
2023/04/07 04:16:30;;;;;;;13.38;8.65;;;8.00;99.90;;;;;;5120563;28;20028;-86
2023/04/07 04:19:00;;;;;;;16.77;7.88;;;8.00;99.90;;;;;;5099786;28;20035;-86
2023/04/07 04:21:28;;;;;;;14.55;8.48;;;8.00;99.90;;;;;;5085117;28;20377;-86
2023/04/07 04:23:55;;;;;;;14.98;6.97;;;8.00;99.90;;;;;;5104059;28;20055;-87
2023/04/07 04:26:24;;;;;;;12.88;7.15;;;8.00;99.90;;;;;;5103473;28;20027;-86
2023/04/07 04:28:51;;;;;;;9.85;5.03;;;8.00;99.90;;;;;;5087090;28;20057;-86
2023/04/07 04:31:19;;;;;;;13.90;6.28;;;8.00;99.90;;;;;;5086265;28;20152;-84
2023/04/07 04:33:45;;;;;;;9.77;5.90;;;8.00;99.90;;;;;;5080140;28;20056;-86
2023/04/07 04:36:10;;;;;;;9.07;5.30;;;8.00;99.90;;;;;;5102023;28;20030;-85
2023/04/07 04:38:36;;;;;;;11.75;5.78;;;8.00;99.90;;;;;;5084638;28;20036;-85
2023/04/07 04:41:07;;;;;;;9.85;5.93;;;8.00;99.90;;;;;;5117317;28;20080;-85
2023/04/07 04:43:33;;;;;;;8.63;4.00;;;8.00;99.90;;;;;;5118089;28;20450;-85
2023/04/07 04:46:00;;;;;;;9.27;3.85;;;7.90;99.90;;;;;;5083958;28;20049;-86
2023/04/07 04:48:28;;;;;;;5.47;2.83;;;8.00;99.90;;;;;;5082169;28;20032;-86
2023/04/07 04:50:54;;;;;;;5.63;2.83;;;8.00;99.90;;;;;;5096702;28;20032;-85
2023/04/07 04:53:21;;;;;;;6.55;3.28;;;7.90;99.90;;;;;;5100829;28;20016;-86
2023/04/07 04:55:56;;;;;;;10.60;5.43;;;7.90;99.90;;;;;;5086104;28;20032;-86
2023/04/07 04:58:33;;;;;;;6.85;3.85;;;7.90;99.90;;;;;;5082973;28;20104;-86
2023/04/07 05:00:59;;;;;;;9.27;3.70;;;7.90;99.90;;;;;;5078371;28;20030;-85
2023/04/07 05:03:51;;;;;;;4.38;2.50;;;7.90;99.90;;;;;;5096086;28;20024;-85
2023/04/07 05:06:21;;;;;;;5.53;3.42;;;7.90;99.90;;;;;;5085692;28;20027;-86
2023/04/07 05:08:50;;;;;;;10.55;5.43;;;7.90;99.90;;;;;;5079955;28;20032;-86
2023/04/07 05:11:20;;;;;;;8.70;5.10;;;7.90;99.90;;;;;;5104282;28;20025;-86
2023/04/07 05:13:49;;;;;;;11.27;6.35;;;7.90;99.90;;;;;;5071807;28;20024;-86
2023/04/07 05:16:15;;;;;;;15.20;8.63;;;7.90;99.90;;;;;;5100694;28;20037;-86
2023/04/07 05:18:41;;;;;;;13.43;7.28;;;7.90;99.90;;;;;;5088106;28;20035;-86
2023/04/07 05:21:07;;;;;;;12.55;8.48;;;8.00;99.90;;;;;;5102247;28;20857;-86
2023/04/07 05:23:35;;;;;;;17.65;8.32;;;8.00;99.90;;;;;;5101977;28;20028;-86
2023/04/07 05:26:01;;;;;;;10.45;5.80;;;8.00;99.90;;;;;;5101131;28;20025;-86
2023/04/07 05:28:28;;;;;;;13.82;7.25;;;8.00;99.90;;;;;;5102099;28;20115;-87
2023/04/07 05:30:57;;;;;;;12.75;7.18;;;8.00;99.90;;;;;;5072866;28;20056;-86
2023/04/07 05:33:27;;;;;;;14.10;7.53;;;8.00;99.90;;;;;;5073385;28;20028;-86
2023/04/07 05:35:53;;;;;;;18.00;11.13;;;8.00;99.90;;;;;;5104908;28;20020;-86
2023/04/07 05:38:19;;;;;;;18.38;10.63;;;8.00;99.90;;;;;;5089499;28;20032;-86
2023/04/07 05:40:46;;;;;;;16.98;9.93;;;8.00;99.90;;;;;;5102866;28;20028;-87
2023/04/07 05:43:18;;;;;;;16.80;9.10;;;8.00;99.90;;;;;;5084299;28;20024;-87
2023/04/07 05:45:44;;;;;;;16.38;10.23;;;8.00;99.90;;;;;;5088396;28;20031;-87
2023/04/07 05:48:10;;;;;;;16.05;9.00;;;8.00;99.90;;;;;;5073390;28;20252;-87
2023/04/07 05:50:43;;;;;;;16.02;8.40;;;8.00;99.90;;;;;;5098198;28;20122;-87
2023/04/07 05:53:12;;;;;;;20.02;10.15;;;8.00;99.90;;;;;;5067795;28;20024;-85
2023/04/07 05:55:38;;;;;;;12.93;7.93;;;8.00;99.90;;;;;;5104391;28;20444;-86
2023/04/07 05:58:06;;;;;;;16.00;8.73;;;8.10;99.90;;;;;;5098517;28;20519;-87
2023/04/07 06:00:32;;;;;;;11.25;7.03;;;8.10;99.90;;;;;;5067563;28;20024;-86
2023/04/07 06:03:05;;;;;;;13.98;7.95;;;8.10;99.90;;;;;;5087776;28;20050;-86
2023/04/07 06:05:42;;;;;;;19.58;9.13;;;8.10;99.90;;;;;;5069555;28;20231;-87
2023/04/07 06:08:11;;;;;;;13.85;9.35;;;8.10;99.90;;;;;;5066930;28;20170;-86
2023/04/07 06:10:36;;;;;;;12.88;7.93;;;8.10;99.90;;;;;;5086361;28;20111;-85
2023/04/07 06:13:02;;;;;;;12.43;8.45;;;8.10;99.90;;;;;;5086765;28;20622;-86
2023/04/07 06:15:27;;;;;;;15.13;9.75;;;8.20;99.90;;;;;;5066477;28;20063;-85
2023/04/07 06:17:53;;;;;;;17.70;8.75;;;8.10;99.90;;;;;;5100878;28;20384;-85
2023/04/07 06:20:20;;;;;;;20.30;10.82;;;8.20;99.90;;;;;;5102075;28;20016;-86
2023/04/07 06:22:46;;;;;;;19.65;10.48;;;8.20;99.90;;;;;;5098713;28;20059;-86
2023/04/07 06:25:12;;;;;;;17.98;9.25;;;8.20;99.90;;;;;;5077174;28;20549;-85
2023/04/07 06:27:37;;;;;;;18.33;10.48;;;8.30;99.90;;;;;;5067038;28;20032;-86
2023/04/07 06:30:03;;;;;;;16.50;9.85;;;8.20;99.90;;;;;;5078487;28;20028;-86
2023/04/07 06:32:32;;;;;;;18.42;10.10;;;8.20;99.90;;;;;;5071261;28;20114;-85
2023/04/07 06:34:58;;;;;;;14.40;8.40;;;8.30;99.90;;;;;;5080046;28;20376;-86
2023/04/07 06:37:24;;;;;;;14.40;9.52;;;8.30;99.90;;;;;;5085992;28;20260;-85
2023/04/07 06:39:50;;;;;;;16.08;9.63;;;8.30;99.90;;;;;;5075178;28;20034;-86
2023/04/07 06:42:16;;;;;;;20.35;13.38;;;8.30;99.90;;;;;;5088124;28;20020;-85
2023/04/07 06:44:49;;;;;;;25.02;15.15;;;8.30;99.90;;;;;;5069459;28;20054;-86
2023/04/07 06:47:15;;;;;;;19.08;12.00;;;8.30;99.90;;;;;;5114596;27;20020;-86
2023/04/07 06:49:41;;;;;;;17.67;9.40;;;8.30;99.90;;;;;;5083192;28;20024;-86
2023/04/07 06:52:06;;;;;;;15.85;8.23;;;8.30;99.90;;;;;;5069120;28;20072;-85
2023/04/07 06:54:32;;;;;;;12.10;8.25;;;8.30;99.90;;;;;;5065820;28;20395;-86
2023/04/07 06:56:58;;;;;;;15.63;8.63;;;8.30;99.90;;;;;;5086229;28;20032;-85
2023/04/07 06:59:23;;;;;;;13.43;8.52;;;8.40;99.90;;;;;;5088188;28;20032;-84
2023/04/07 07:01:49;;;;;;;15.07;8.98;;;8.40;99.90;;;;;;5085904;28;20036;-85
2023/04/07 07:04:15;;;;;;;11.88;7.78;;;8.50;99.90;;;;;;5067883;28;20035;-85
2023/04/07 07:06:40;;;;;;;14.85;9.65;;;8.50;99.90;;;;;;5100031;28;20028;-85
2023/04/07 07:09:06;;;;;;;16.77;9.20;;;8.50;99.90;;;;;;5085679;28;20027;-85
2023/04/07 07:11:32;;;;;;;19.08;9.68;;;8.50;99.90;;;;;;5112930;27;20026;-85
2023/04/07 07:13:58;;;;;;;13.07;7.15;;;8.60;99.90;;;;;;5067599;28;20472;-85
2023/04/07 07:16:23;;;;;;;13.68;7.85;;;8.70;99.90;;;;;;5100864;28;20035;-85
2023/04/07 07:18:51;;;;;;;10.65;7.03;;;8.70;99.90;;;;;;5066457;28;20040;-86
2023/04/07 07:21:18;;;;;;;13.82;7.10;;;8.70;99.90;;;;;;5068822;28;20035;-86
2023/04/07 07:23:44;;;;;;;12.30;8.05;;;8.80;99.90;;;;;;5084957;28;20511;-87
2023/04/07 07:26:10;;;;;;;8.93;6.63;;;8.80;99.90;;;;;;5078898;28;20383;-87
2023/04/07 07:28:35;;;;;;;13.95;6.80;;;8.70;99.90;;;;;;5086035;28;20131;-85
2023/04/07 07:31:09;;;;;;;14.02;6.60;;;8.70;99.90;;;;;;5084475;28;20024;-85
2023/04/07 07:33:35;;;;;;;9.48;6.65;;;8.80;99.90;;;;;;5063488;28;20031;-86
2023/04/07 07:36:00;;;;;;;11.13;5.97;;;8.80;99.90;;;;;;5116194;27;20028;-86
2023/04/07 07:38:26;;;;;;;6.72;4.43;;;8.90;99.90;;;;;;5079546;28;20479;-86
2023/04/07 07:40:52;;;;;;;11.63;6.25;;;8.90;99.90;;;;;;5066481;28;20020;-87
2023/04/07 07:43:17;;;;;;;14.80;8.00;;;8.90;99.90;;;;;;5066744;28;20456;-87
2023/04/07 07:45:43;;;;;;;11.93;7.18;;;9.00;99.90;;;;;;5085176;28;20036;-85
2023/04/07 07:48:09;;;;;;;12.38;5.80;;;9.00;99.90;;;;;;5083898;28;20059;-85
2023/04/07 07:50:35;;;;;;;9.95;5.22;;;9.00;99.90;;;;;;5113949;27;20070;-86
2023/04/07 07:53:01;;;;;;;7.30;3.67;;;8.90;99.90;;;;;;5069219;28;20039;-85
2023/04/07 07:55:26;;;;;;;13.98;6.82;;;8.90;99.90;;;;;;5096454;28;20020;-86
2023/04/07 07:57:52;;;;;;;14.02;7.97;;;8.90;99.90;;;;;;5062818;28;20048;-86
2023/04/07 08:00:18;;;;;;;17.67;9.18;;;8.80;99.90;;;;;;5095529;28;20068;-85
2023/04/07 08:02:44;;;;;;;15.05;7.43;;;8.80;99.90;;;;;;5078713;28;20036;-85
2023/04/07 08:05:10;;;;;;;12.65;7.63;;;8.80;99.90;;;;;;5097549;28;20065;-85
2023/04/07 08:07:36;;;;;;;8.55;5.03;;;8.70;99.90;;;;;;5099234;28;20025;-87
2023/04/07 08:10:02;;;;;;;9.85;4.47;;;8.80;99.90;;;;;;5061447;28;20060;-86
2023/04/07 08:12:28;;;;;;;7.93;4.32;;;8.70;99.90;;;;;;5097923;28;20170;-85
2023/04/07 08:14:53;;;;;;;8.93;5.13;;;8.80;99.90;;;;;;5061380;28;20020;-87
2023/04/07 08:17:19;;;;;;;6.82;4.43;;;8.70;99.90;;;;;;5096700;28;20484;-86
2023/04/07 08:19:45;;;;;;;8.85;4.28;;;8.80;99.90;;;;;;5066344;28;20029;-86
2023/04/07 08:22:10;;;;;;;7.65;4.90;;;8.80;99.90;;;;;;5065692;28;20024;-86
2023/04/07 08:24:36;;;;;;;9.82;5.28;;;8.80;99.90;;;;;;5112241;28;20066;-86
2023/04/07 08:27:02;;;;;;;7.50;4.90;;;8.90;99.90;;;;;;5067777;28;20466;-86
2023/04/07 08:29:27;;;;;;;6.90;3.92;;;8.90;99.90;;;;;;5065644;28;20085;-87
2023/04/07 08:31:53;;;;;;;6.68;3.42;;;9.00;99.90;;;;;;5084417;28;20021;-87
2023/04/07 08:34:20;;;;;;;13.65;6.88;;;9.00;99.90;;;;;;5067015;28;20028;-87
2023/04/07 08:36:46;;;;;;;14.88;8.60;;;9.00;99.90;;;;;;5070989;28;20143;-87
2023/04/07 08:39:11;;;;;;;12.45;6.72;;;9.00;99.90;;;;;;5099831;28;20124;-87
2023/04/07 08:41:41;;;;;;;8.98;4.68;;;9.00;99.90;;;;;;5098960;28;20088;-87
2023/04/07 08:44:08;;;;;;;6.90;3.22;;;9.00;99.90;;;;;;5068611;28;20036;-87
2023/04/07 08:46:37;;;;;;;5.30;2.25;;;8.90;99.90;;;;;;5073018;28;20215;-87
2023/04/07 08:49:07;;;;;;;6.32;2.83;;;9.10;99.90;;;;;;5071367;28;20488;-88
2023/04/07 08:51:33;;;;;;;;;;;9.10;99.90;;;;;;5068480;28;20063;-87
2023/04/07 08:54:12;;;;;;;3.00;1.98;;;9.10;99.90;;;;;;5085658;28;19907;-87
2023/04/07 08:56:40;;;;;;;6.93;3.20;;;9.20;99.90;;;;;;5084890;28;20036;-86
2023/04/07 08:59:11;;;;;;;10.57;5.63;;;9.30;99.90;;;;;;5068689;28;20079;-87
2023/04/07 09:01:38;;;;;;;6.05;4.07;;;9.20;99.90;;;;;;5069012;28;20060;-87
2023/04/07 09:04:06;;;;;;;6.05;3.90;;;9.20;99.90;;;;;;5067521;28;20056;-87
2023/04/07 09:06:33;;;;;;;6.65;4.10;;;9.30;99.90;;;;;;5068777;28;20025;-87
2023/04/07 09:09:05;;;;;;;4.10;3.28;;;9.20;99.90;;;;;;5084104;28;20021;-87
2023/04/07 09:11:35;;;;;;;4.85;2.55;;;9.20;99.90;;;;;;5069280;28;20036;-88
2023/04/07 09:14:01;;;;;;;4.55;2.08;;;9.30;99.90;;;;;;5082311;28;20074;-87
2023/04/07 09:16:29;;;;;;;3.42;2.35;;;9.30;99.90;;;;;;5096869;28;20032;-88
2023/04/07 09:18:55;;;;;;;4.60;2.10;;;9.30;99.90;;;;;;5082767;28;20044;-87
2023/04/07 09:21:21;;;;;;;3.25;1.77;;;9.40;99.90;;;;;;5083144;28;20370;-87
2023/04/07 09:23:48;;;;;;;5.15;1.40;;;9.40;99.90;;;;;;5102669;28;20059;-87
2023/04/07 09:26:19;;;;;;;3.45;1.63;;;9.40;99.90;;;;;;5069586;28;20043;-87
2023/04/07 09:28:46;;;;;;;5.32;1.55;;;9.30;99.90;;;;;;5068543;28;20032;-87
2023/04/07 09:31:12;;;;;;;4.40;1.77;;;9.30;99.90;;;;;;5087941;28;20307;-88
2023/04/07 09:33:37;;;;;;;2.47;0.85;;;9.20;99.90;;;;;;5087421;28;20050;-87
2023/04/07 09:36:07;;;;;;;2.47;0.88;;;9.30;99.90;;;;;;5067314;28;20036;-88
2023/04/07 09:38:38;;;;;;;3.42;0.95;;;9.30;99.90;;;;;;5068900;28;20147;-86
2023/04/07 09:41:09;;;;;;;2.75;1.15;;;9.30;99.90;;;;;;5069424;28;20062;-87
2023/04/07 09:43:43;;;;;;;2.22;1.30;;;9.30;99.90;;;;;;5069777;28;20487;-86
2023/04/07 09:46:14;;;;;;;3.33;1.52;;;9.20;99.90;;;;;;5068769;28;20047;-86
2023/04/07 09:48:41;;;;;;;5.30;1.55;;;9.10;99.90;;;;;;5082365;28;20039;-86
2023/04/07 09:51:11;;;;;;;3.58;2.15;;;9.10;99.90;;;;;;5067684;28;20047;-86
2023/04/07 09:53:51;;;;;;;3.67;1.60;;;9.00;99.90;;;;;;5067649;28;20119;-86
2023/04/07 09:56:18;;;;;;;3.25;1.30;;;9.10;99.90;;;;;;5084061;28;20067;-87
2023/04/07 09:58:46;;;;;;;2.95;1.33;;;9.10;99.90;;;;;;5081568;28;20055;-87
2023/04/07 10:01:13;;;;;;;5.07;1.55;;;9.10;99.90;;;;;;5070154;28;20165;-86
2023/04/07 10:03:40;;;;;;;5.40;2.60;;;9.20;99.90;;;;;;5079041;28;20452;-87
2023/04/07 10:06:06;;;;;;;3.53;1.80;;;9.30;99.90;;;;;;5083007;28;20502;-87
2023/04/07 10:08:34;;;;;;;6.82;2.28;;;9.30;99.90;;;;;;5100574;28;20504;-86
2023/04/07 10:11:04;;;;;;;3.88;2.25;;;9.30;99.90;;;;;;5064213;28;20086;-86
2023/04/07 10:13:30;;;;;;;;;;;9.30;99.90;;;;;;5087745;28;20100;-87
2023/04/07 10:15:57;;;;;;;5.40;2.13;;;9.20;99.90;;;;;;5069215;28;19999;-86
2023/04/07 10:18:30;;;;;;;4.32;2.63;;;9.40;99.90;;;;;;5071479;28;20043;-86
2023/04/07 10:21:00;;;;;;;5.47;2.70;;;9.30;99.90;;;;;;5083605;28;20027;-87
2023/04/07 10:23:35;;;;;;;;;;;9.30;99.90;;;;;;5083040;28;20029;-87
2023/04/07 10:26:05;;;;;;;8.05;3.28;;;9.40;99.90;;;;;;5082558;28;20031;-87
2023/04/07 10:28:32;;;;;;;8.20;3.53;;;9.40;99.90;;;;;;5069952;28;20376;-87
2023/04/07 10:30:59;;;;;;;5.43;3.15;;;9.60;99.90;;;;;;5082356;28;20032;-86
2023/04/07 10:33:43;;;;;;;3.80;2.80;;;9.80;99.90;;;;;;5079827;28;20029;-86
2023/04/07 10:36:10;;;;;;;7.68;3.30;;;9.90;99.90;;;;;;5067540;28;20180;-86
2023/04/07 10:38:35;;;;;;;6.47;3.38;;;10.00;99.90;;;;;;5101107;28;20043;-87
2023/04/07 10:41:31;;;;;;;9.07;4.90;;;9.80;99.90;;;;;;5082974;28;20024;-86
2023/04/07 10:43:57;;;;;;;7.05;4.60;;;9.90;99.90;;;;;;5081212;28;20480;-88
2023/04/07 10:46:23;;;;;;;10.60;4.72;;;9.90;99.90;;;;;;5064613;28;20119;-87
2023/04/07 10:49:12;;;;;;;10.43;4.45;;;9.70;99.90;;;;;;5116344;27;20111;-87
2023/04/07 10:51:38;;;;;;;13.65;3.97;;;9.60;99.90;;;;;;5070588;28;20469;-88
2023/04/07 10:54:21;;;;;;;7.18;4.28;;;9.80;99.90;;;;;;5065203;28;20236;-86
2023/04/07 10:57:12;;;;;;;7.05;4.05;;;9.80;99.90;;;;;;5078827;28;20037;-86
2023/04/07 10:59:45;;;;;;;8.40;3.75;;;9.70;99.90;;;;;;5077299;28;20040;-86
2023/04/07 11:02:11;;;;;;;9.75;4.70;;;9.70;99.90;;;;;;5068455;28;20048;-86
2023/04/07 11:04:38;;;;;;;7.35;4.07;;;9.60;99.90;;;;;;5066015;28;20063;-86
2023/04/07 11:07:04;;;;;;;9.27;4.03;;;9.70;99.90;;;;;;5086665;28;20035;-87
2023/04/07 11:09:30;;;;;;;7.00;3.30;;;9.60;99.90;;;;;;5065611;28;20038;-86
2023/04/07 11:11:56;;;;;;;8.93;4.13;;;9.70;99.90;;;;;;5067728;28;20028;-86
2023/04/07 11:14:40;;;;;;;5.43;3.58;;;9.70;99.90;;;;;;5067659;28;20334;-86
2023/04/07 11:17:14;;;;;;;4.50;2.83;;;9.70;99.90;;;;;;5115512;27;20472;-86
2023/04/07 11:19:52;;;;;;;5.00;3.20;;;9.70;99.90;;;;;;5070111;28;20027;-86
2023/04/07 11:22:18;;;;;;;5.82;2.70;;;9.80;99.90;;;;;;5085595;28;20046;-86
2023/04/07 11:24:47;;;;;;;5.10;2.45;;;9.70;99.90;;;;;;5083150;28;20035;-87
2023/04/07 11:27:14;;;;;;;5.03;2.60;;;9.70;99.90;;;;;;5082785;28;20067;-86
2023/04/07 11:29:40;;;;;;;8.15;3.47;;;9.60;99.90;;;;;;5069301;28;20024;-87
2023/04/07 11:32:05;;;;;;;8.00;3.42;;;9.60;99.90;;;;;;5101079;28;20032;-87
2023/04/07 11:34:33;;;;;;;9.25;3.50;;;9.60;99.90;;;;;;5084110;28;20038;-87
2023/04/07 11:37:17;;;;;;;5.97;3.70;;;9.50;99.90;;;;;;5084075;28;20024;-87
2023/04/07 11:39:46;;;;;;;10.55;3.40;;;9.60;99.90;;;;;;5085362;28;20082;-86
2023/04/07 11:42:12;;;;;;;9.35;3.72;;;9.60;99.90;;;;;;5066535;28;20373;-86
2023/04/07 11:44:46;;;;;;;7.05;3.75;;;9.60;99.90;;;;;;5077866;28;20028;-86
2023/04/07 11:47:12;;;;;;;8.18;4.35;;;9.70;99.90;;;;;;5084358;28;20085;-87
2023/04/07 11:49:47;;;;;;;9.73;4.45;;;9.80;99.90;;;;;;5083965;28;20532;-87
2023/04/07 11:52:13;;;;;;;8.80;4.80;;;9.80;99.90;;;;;;5079006;28;20028;-86
2023/04/07 11:54:40;;;;;;;7.32;3.92;;;9.90;99.90;;;;;;5095209;28;20491;-86
2023/04/07 11:57:09;;;;;;;6.63;4.05;;;9.90;99.90;;;;;;5067590;28;20020;-87
2023/04/07 11:59:34;;;;;;;8.20;3.10;;;9.70;99.90;;;;;;5083900;28;20079;-85
2023/04/07 12:02:00;;;;;;;5.70;2.42;;;9.80;99.90;;;;;;5095454;28;20487;-86
2023/04/07 12:04:26;;;;;;;7.55;1.83;;;9.60;99.90;;;;;;5083543;28;20028;-86
2023/04/07 12:06:52;;;;;;;5.20;1.80;;;9.50;99.90;;;;;;5060502;28;20433;-87
2023/04/07 12:09:29;;;;;;;4.38;2.08;;;9.50;99.90;;;;;;5081858;28;20027;-85
2023/04/07 12:11:56;;;;;;;7.43;3.42;;;9.50;99.90;;;;;;5084933;28;20024;-86
2023/04/07 12:14:23;;;;;;;3.55;2.33;;;9.40;99.90;;;;;;5086383;28;20028;-87
2023/04/07 12:16:49;;;;;;;5.97;3.20;;;9.50;99.90;;;;;;5085536;28;20470;-85
2023/04/07 12:19:15;;;;;;;3.53;2.42;;;9.50;99.90;;;;;;5066739;28;20503;-86
2023/04/07 12:21:41;;;;;;;6.07;2.58;;;9.70;99.90;;;;;;5067262;28;20298;-86
2023/04/07 12:24:06;;;;;;;9.95;5.25;;;9.70;99.90;;;;;;5085128;28;20419;-87
2023/04/07 12:26:32;;;;;;;8.43;3.80;;;9.50;99.90;;;;;;5107160;28;20027;-87
2023/04/07 12:29:03;;;;;;;5.78;3.17;;;9.60;99.90;;;;;;5105452;28;20153;-87
2023/04/07 12:31:33;;;;;;;5.55;3.65;;;9.50;99.90;;;;;;5073085;28;20034;-87
2023/04/07 12:33:59;;;;;;;5.47;4.50;;;9.60;99.90;;;;;;5102744;28;20039;-87
2023/04/07 12:36:28;;;;;;;10.75;4.15;;;9.60;99.90;;;;;;5072101;28;20408;-87
2023/04/07 12:38:55;;;;;;;8.70;4.10;;;9.60;99.90;;;;;;5069410;28;20273;-88
2023/04/07 12:41:21;;;;;;;6.78;3.50;;;9.60;99.90;;;;;;5072610;28;20453;-87
2023/04/07 12:43:46;;;;;;;6.72;3.20;;;9.70;99.90;;;;;;5069459;28;20079;-87
2023/04/07 12:46:12;;;;;;;5.63;3.10;;;9.50;99.90;;;;;;5070065;28;20024;-87
2023/04/07 12:48:38;;;;;;;5.72;3.00;;;9.60;99.90;;;;;;5104642;28;20032;-88
2023/04/07 12:51:04;;;;;;;6.82;2.63;;;9.60;99.90;;;;;;5071204;28;20654;-87
2023/04/07 12:53:30;;;;;;;4.88;2.75;;;9.50;99.90;;;;;;5104255;28;20257;-87